Terminal Aerodrome Forecast
Issued by NWS

Current Version | Previous Version | Text Only | Print | Product List | Glossary On
Versions: 1 2 3 4 5 6 7 8 9 10 11 12 13 14 15 16 17 18
000
FTUS45 KABQ 040500 AAA
TAFTCC
TAF AMD
KTCC 040550Z 0406/0506 05015KT P6SM OVC007
     FM041400 06015KT 4SM -SN BR OVC007
     FM050100 05012KT P6SM OVC015=

USA.gov is the U.S. government's official web portal to all federal, state and local government web resources and services.